sensor_id;sensor_type;location;lat;lon;timestamp;pressure;altitude;pressure_sealevel;temperature;humidity
40730;BME280;26418;50.070;8.436;2023-02-19T00:01:44;100368.19;;;9.26;87.08
40730;BME280;26418;50.070;8.436;2023-02-19T00:04:18;100369.25;;;9.25;86.94
40730;BME280;26418;50.070;8.436;2023-02-19T00:06:45;100365.50;;;9.21;87.42
40730;BME280;26418;50.070;8.436;2023-02-19T00:09:12;100369.81;;;9.22;87.16
40730;BME280;26418;50.070;8.436;2023-02-19T00:11:38;100363.63;;;9.21;87.09
40730;BME280;26418;50.070;8.436;2023-02-19T00:14:04;100349.03;;;9.22;87.25
40730;BME280;26418;50.070;8.436;2023-02-19T00:16:35;100346.06;;;9.24;87.05
40730;BME280;26418;50.070;8.436;2023-02-19T00:19:03;100346.59;;;9.26;86.99
40730;BME280;26418;50.070;8.436;2023-02-19T00:21:29;100348.72;;;9.29;86.79
40730;BME280;26418;50.070;8.436;2023-02-19T00:23:57;100358.41;;;9.30;86.81
40730;BME280;26418;50.070;8.436;2023-02-19T00:26:23;100360.56;;;9.33;86.80
40730;BME280;26418;50.070;8.436;2023-02-19T00:28:51;100357.34;;;9.31;86.61
40730;BME280;26418;50.070;8.436;2023-02-19T00:31:22;100360.31;;;9.30;86.60
40730;BME280;26418;50.070;8.436;2023-02-19T00:33:52;100362.75;;;9.31;86.79
40730;BME280;26418;50.070;8.436;2023-02-19T00:36:18;100366.25;;;9.32;86.70
40730;BME280;26418;50.070;8.436;2023-02-19T00:38:44;100342.28;;;9.20;86.74
40730;BME280;26418;50.070;8.436;2023-02-19T00:41:11;100367.88;;;9.27;86.81
40730;BME280;26418;50.070;8.436;2023-02-19T00:43:51;100374.09;;;9.28;86.88
40730;BME280;26418;50.070;8.436;2023-02-19T00:46:21;100356.84;;;9.24;86.79
40730;BME280;26418;50.070;8.436;2023-02-19T00:48:47;100339.53;;;9.30;86.91
40730;BME280;26418;50.070;8.436;2023-02-19T00:51:13;100325.56;;;9.23;86.79
40730;BME280;26418;50.070;8.436;2023-02-19T00:53:38;100339.28;;;9.26;87.04
40730;BME280;26418;50.070;8.436;2023-02-19T00:56:04;100343.91;;;9.21;87.34
40730;BME280;26418;50.070;8.436;2023-02-19T00:58:29;100331.31;;;9.11;87.86
40730;BME280;26418;50.070;8.436;2023-02-19T01:00:55;100354.47;;;9.17;87.76
40730;BME280;26418;50.070;8.436;2023-02-19T01:03:20;100352.59;;;9.18;87.69
40730;BME280;26418;50.070;8.436;2023-02-19T01:05:50;100340.72;;;9.19;88.02
40730;BME280;26418;50.070;8.436;2023-02-19T01:08:16;100331.00;;;9.18;88.01
40730;BME280;26418;50.070;8.436;2023-02-19T01:10:41;100315.09;;;9.11;87.95
40730;BME280;26418;50.070;8.436;2023-02-19T01:13:07;100328.56;;;9.16;88.15
40730;BME280;26418;50.070;8.436;2023-02-19T01:15:33;100339.88;;;9.18;88.13
40730;BME280;26418;50.070;8.436;2023-02-19T01:17:58;100331.78;;;9.18;88.00
40730;BME280;26418;50.070;8.436;2023-02-19T01:20:24;100332.59;;;9.19;88.26
40730;BME280;26418;50.070;8.436;2023-02-19T01:22:50;100327.22;;;9.19;88.12
40730;BME280;26418;50.070;8.436;2023-02-19T01:25:15;100324.50;;;9.19;88.21
40730;BME280;26418;50.070;8.436;2023-02-19T01:27:40;100321.53;;;9.20;88.24
40730;BME280;26418;50.070;8.436;2023-02-19T01:30:06;100317.22;;;9.19;88.44
40730;BME280;26418;50.070;8.436;2023-02-19T01:32:31;100323.97;;;9.17;88.51
40730;BME280;26418;50.070;8.436;2023-02-19T01:34:57;100325.59;;;9.18;88.42
40730;BME280;26418;50.070;8.436;2023-02-19T01:37:22;100326.91;;;9.20;88.68
40730;BME280;26418;50.070;8.436;2023-02-19T01:39:47;100326.63;;;9.22;88.66
40730;BME280;26418;50.070;8.436;2023-02-19T01:42:14;100320.69;;;9.20;88.34
40730;BME280;26418;50.070;8.436;2023-02-19T01:47:12;100319.88;;;9.24;88.71
40730;BME280;26418;50.070;8.436;2023-02-19T01:49:43;100300.25;;;9.13;89.10
40730;BME280;26418;50.070;8.436;2023-02-19T01:54:39;100308.06;;;9.15;90.14
40730;BME280;26418;50.070;8.436;2023-02-19T01:57:08;100308.63;;;9.12;90.31
40730;BME280;26418;50.070;8.436;2023-02-19T01:59:35;100310.00;;;9.09;90.42
40730;BME280;26418;50.070;8.436;2023-02-19T02:02:01;100308.38;;;9.08;90.65
40730;BME280;26418;50.070;8.436;2023-02-19T02:04:29;100305.94;;;9.07;90.96
40730;BME280;26418;50.070;8.436;2023-02-19T02:06:56;100288.25;;;8.95;91.23
40730;BME280;26418;50.070;8.436;2023-02-19T02:09:26;100298.75;;;8.97;91.44
40730;BME280;26418;50.070;8.436;2023-02-19T02:12:10;100285.00;;;8.93;91.51
40730;BME280;26418;50.070;8.436;2023-02-19T02:14:39;100284.22;;;8.93;91.92
40730;BME280;26418;50.070;8.436;2023-02-19T02:17:27;100288.84;;;8.87;92.40
40730;BME280;26418;50.070;8.436;2023-02-19T02:28:35;100274.81;;;8.85;92.89
40730;BME280;26418;50.070;8.436;2023-02-19T02:31:22;100271.31;;;8.85;92.90
40730;BME280;26418;50.070;8.436;2023-02-19T02:36:26;100288.59;;;8.84;93.37
40730;BME280;26418;50.070;8.436;2023-02-19T02:38:54;100284.28;;;8.83;93.22
40730;BME280;26418;50.070;8.436;2023-02-19T02:41:21;100258.69;;;8.75;93.32
40730;BME280;26418;50.070;8.436;2023-02-19T02:43:47;100271.81;;;8.87;93.29
40730;BME280;26418;50.070;8.436;2023-02-19T02:46:16;100261.03;;;8.87;93.25
40730;BME280;26418;50.070;8.436;2023-02-19T02:48:57;100261.03;;;8.87;93.38
40730;BME280;26418;50.070;8.436;2023-02-19T02:51:42;100257.56;;;8.86;93.36
40730;BME280;26418;50.070;8.436;2023-02-19T02:54:17;100259.97;;;8.88;93.41
40730;BME280;26418;50.070;8.436;2023-02-19T02:57:01;100258.88;;;8.89;93.39
40730;BME280;26418;50.070;8.436;2023-02-19T02:59:32;100247.06;;;8.85;93.28
40730;BME280;26418;50.070;8.436;2023-02-19T03:02:04;100252.44;;;8.85;93.07
40730;BME280;26418;50.070;8.436;2023-02-19T03:05:05;100254.53;;;8.93;93.13
40730;BME280;26418;50.070;8.436;2023-02-19T03:10:26;100249.09;;;8.98;93.78
40730;BME280;26418;50.070;8.436;2023-02-19T03:12:54;100253.91;;;9.06;93.80
40730;BME280;26418;50.070;8.436;2023-02-19T03:15:47;100268.69;;;9.14;92.19
40730;BME280;26418;50.070;8.436;2023-02-19T03:18:35;100253.81;;;9.17;91.89
40730;BME280;26418;50.070;8.436;2023-02-19T03:21:22;100255.69;;;9.21;92.34
40730;BME280;26418;50.070;8.436;2023-02-19T03:23:48;100264.31;;;9.18;92.32
40730;BME280;26418;50.070;8.436;2023-02-19T03:26:35;100261.94;;;9.11;92.64
40730;BME280;26418;50.070;8.436;2023-02-19T03:29:03;100258.44;;;9.11;93.17
40730;BME280;26418;50.070;8.436;2023-02-19T03:32:03;100254.97;;;9.10;93.40
40730;BME280;26418;50.070;8.436;2023-02-19T03:34:36;100256.53;;;9.11;93.70
40730;BME280;26418;50.070;8.436;2023-02-19T03:37:12;100250.91;;;9.08;94.17
40730;BME280;26418;50.070;8.436;2023-02-19T03:39:39;100251.50;;;9.05;94.51
40730;BME280;26418;50.070;8.436;2023-02-19T03:42:55;100246.13;;;9.00;94.83
40730;BME280;26418;50.070;8.436;2023-02-19T03:45:50;100251.78;;;8.98;95.54
40730;BME280;26418;50.070;8.436;2023-02-19T03:48:28;100258.28;;;8.97;95.62
40730;BME280;26418;50.070;8.436;2023-02-19T03:56:48;100264.44;;;9.03;94.89
40730;BME280;26418;50.070;8.436;2023-02-19T04:02:07;100260.69;;;8.99;94.85
40730;BME280;26418;50.070;8.436;2023-02-19T04:04:40;100257.78;;;8.90;94.73
40730;BME280;26418;50.070;8.436;2023-02-19T04:07:08;100263.66;;;9.02;94.22
40730;BME280;26418;50.070;8.436;2023-02-19T04:09:36;100259.06;;;9.03;93.59
40730;BME280;26418;50.070;8.436;2023-02-19T04:12:04;100248.03;;;8.99;93.23
40730;BME280;26418;50.070;8.436;2023-02-19T04:14:47;100255.50;;;9.07;92.85
40730;BME280;26418;50.070;8.436;2023-02-19T04:17:19;100257.38;;;9.07;92.87
40730;BME280;26418;50.070;8.436;2023-02-19T04:19:48;100262.53;;;9.08;93.02
40730;BME280;26418;50.070;8.436;2023-02-19T04:22:16;100261.94;;;9.11;92.06
40730;BME280;26418;50.070;8.436;2023-02-19T04:24:48;100253.06;;;9.11;91.47
40730;BME280;26418;50.070;8.436;2023-02-19T04:27:15;100244.25;;;9.00;91.47
40730;BME280;26418;50.070;8.436;2023-02-19T04:29:41;100237.78;;;8.96;91.92
40730;BME280;26418;50.070;8.436;2023-02-19T04:32:09;100242.38;;;8.95;91.96
40730;BME280;26418;50.070;8.436;2023-02-19T04:34:34;100262.84;;;9.02;91.49
40730;BME280;26418;50.070;8.436;2023-02-19T04:37:00;100259.34;;;9.01;91.22
40730;BME280;26418;50.070;8.436;2023-02-19T04:39:25;100264.44;;;9.03;91.36
40730;BME280;26418;50.070;8.436;2023-02-19T04:41:50;100255.56;;;8.97;90.92
40730;BME280;26418;50.070;8.436;2023-02-19T04:44:16;100273.63;;;9.02;91.11
40730;BME280;26418;50.070;8.436;2023-02-19T04:46:41;100271.75;;;8.97;90.63
40730;BME280;26418;50.070;8.436;2023-02-19T04:49:06;100275.25;;;9.03;90.40
40730;BME280;26418;50.070;8.436;2023-02-19T04:51:32;100283.03;;;9.04;90.86
40730;BME280;26418;50.070;8.436;2023-02-19T04:53:57;100291.38;;;9.08;90.41
40730;BME280;26418;50.070;8.436;2023-02-19T04:56:22;100289.81;;;9.02;90.76
40730;BME280;26418;50.070;8.436;2023-02-19T04:58:48;100285.50;;;9.01;91.08
40730;BME280;26418;50.070;8.436;2023-02-19T05:01:13;100284.69;;;9.00;90.58
40730;BME280;26418;50.070;8.436;2023-02-19T05:03:39;100290.63;;;9.02;90.42
40730;BME280;26418;50.070;8.436;2023-02-19T05:06:10;100295.44;;;9.05;90.24
40730;BME280;26418;50.070;8.436;2023-02-19T05:08:36;100292.25;;;8.98;89.88
40730;BME280;26418;50.070;8.436;2023-02-19T05:11:03;100291.97;;;9.00;90.06
40730;BME280;26418;50.070;8.436;2023-02-19T05:13:29;100290.41;;;8.93;90.43
40730;BME280;26418;50.070;8.436;2023-02-19T05:16:00;100305.50;;;8.94;90.45
40730;BME280;26418;50.070;8.436;2023-02-19T05:18:26;100300.06;;;9.00;90.40
40730;BME280;26418;50.070;8.436;2023-02-19T05:20:52;100310.84;;;9.00;90.52
40730;BME280;26418;50.070;8.436;2023-02-19T05:23:19;100314.91;;;9.02;90.14
40730;BME280;26418;50.070;8.436;2023-02-19T05:25:45;100319.72;;;9.05;90.06
40730;BME280;26418;50.070;8.436;2023-02-19T05:28:11;100315.16;;;9.06;89.51
40730;BME280;26418;50.070;8.436;2023-02-19T05:30:47;100312.47;;;9.06;89.42
40730;BME280;26418;50.070;8.436;2023-02-19T05:33:14;100304.97;;;8.98;89.67
40730;BME280;26418;50.070;8.436;2023-02-19T05:35:44;100317.63;;;9.02;89.34
40730;BME280;26418;50.070;8.436;2023-02-19T05:38:10;100312.47;;;9.01;89.34
40730;BME280;26418;50.070;8.436;2023-02-19T05:40:36;100318.72;;;8.96;89.49
40730;BME280;26418;50.070;8.436;2023-02-19T05:43:02;100313.31;;;8.96;89.20
40730;BME280;26418;50.070;8.436;2023-02-19T05:45:27;100320.06;;;8.93;89.24
40730;BME280;26418;50.070;8.436;2023-02-19T05:47:56;100311.22;;;8.88;88.92
40730;BME280;26418;50.070;8.436;2023-02-19T05:50:21;100323.06;;;8.92;88.98
40730;BME280;26418;50.070;8.436;2023-02-19T05:52:46;100325.19;;;8.95;88.63
40730;BME280;26418;50.070;8.436;2023-02-19T05:55:12;100316.84;;;8.96;88.33
40730;BME280;26418;50.070;8.436;2023-02-19T05:57:44;100324.09;;;9.01;87.49
40730;BME280;26418;50.070;8.436;2023-02-19T06:00:13;100333.22;;;9.05;87.77
40730;BME280;26418;50.070;8.436;2023-02-19T06:02:38;100345.63;;;9.06;87.59
40730;BME280;26418;50.070;8.436;2023-02-19T06:05:05;100347.78;;;9.09;87.31
40730;BME280;26418;50.070;8.436;2023-02-19T06:07:31;100356.38;;;9.11;86.87
40730;BME280;26418;50.070;8.436;2023-02-19T06:09:57;100357.72;;;9.14;87.06
40730;BME280;26418;50.070;8.436;2023-02-19T06:12:22;100341.81;;;9.12;87.43
40730;BME280;26418;50.070;8.436;2023-02-19T06:14:48;100350.19;;;9.11;87.76
40730;BME280;26418;50.070;8.436;2023-02-19T06:17:13;100341.84;;;9.07;87.95
40730;BME280;26418;50.070;8.436;2023-02-19T06:19:39;100352.66;;;9.07;87.19
40730;BME280;26418;50.070;8.436;2023-02-19T06:22:04;100361.28;;;9.09;87.14
40730;BME280;26418;50.070;8.436;2023-02-19T06:24:29;100353.53;;;8.98;87.10
40730;BME280;26418;50.070;8.436;2023-02-19T06:26:55;100370.75;;;9.02;87.27
40730;BME280;26418;50.070;8.436;2023-02-19T06:29:20;100375.59;;;9.00;87.35
40730;BME280;26418;50.070;8.436;2023-02-19T06:31:46;100378.88;;;8.96;87.44
40730;BME280;26418;50.070;8.436;2023-02-19T06:34:11;100378.88;;;8.96;87.32
40730;BME280;26418;50.070;8.436;2023-02-19T06:36:36;100381.84;;;8.95;87.40
40730;BME280;26418;50.070;8.436;2023-02-19T06:39:03;100384.00;;;8.98;87.31
40730;BME280;26418;50.070;8.436;2023-02-19T06:41:29;100389.94;;;8.95;87.08
40730;BME280;26418;50.070;8.436;2023-02-19T06:43:56;100395.66;;;8.88;87.53
40730;BME280;26418;50.070;8.436;2023-02-19T06:46:22;100395.66;;;8.88;87.49
40730;BME280;26418;50.070;8.436;2023-02-19T06:48:47;100405.34;;;8.89;87.68
40730;BME280;26418;50.070;8.436;2023-02-19T06:51:15;100405.88;;;8.91;87.22
40730;BME280;26418;50.070;8.436;2023-02-19T06:53:43;100412.06;;;8.92;87.11
40730;BME280;26418;50.070;8.436;2023-02-19T06:56:26;100419.34;;;8.96;87.11
40730;BME280;26418;50.070;8.436;2023-02-19T06:58:54;100422.56;;;8.99;86.67
40730;BME280;26418;50.070;8.436;2023-02-19T07:01:21;100426.31;;;9.03;86.38
40730;BME280;26418;50.070;8.436;2023-02-19T07:03:46;100422.03;;;8.96;86.44
40730;BME280;26418;50.070;8.436;2023-02-19T07:06:12;100431.44;;;9.09;86.23
40730;BME280;26418;50.070;8.436;2023-02-19T07:08:37;100424.13;;;9.10;86.52
40730;BME280;26418;50.070;8.436;2023-02-19T07:11:03;100430.59;;;9.09;86.64
40730;BME280;26418;50.070;8.436;2023-02-19T07:13:28;100430.84;;;9.12;86.68
40730;BME280;26418;50.070;8.436;2023-02-19T07:16:01;100431.94;;;9.11;87.21
40730;BME280;26418;50.070;8.436;2023-02-19T07:18:29;100433.28;;;9.14;86.93
40730;BME280;26418;50.070;8.436;2023-02-19T07:20:54;100437.06;;;9.13;86.98
40730;BME280;26418;50.070;8.436;2023-02-19T07:23:19;100421.97;;;9.07;86.96
40730;BME280;26418;50.070;8.436;2023-02-19T07:25:45;100429.28;;;9.06;87.30
40730;BME280;26418;50.070;8.436;2023-02-19T07:28:10;100437.38;;;9.06;87.10
40730;BME280;26418;50.070;8.436;2023-02-19T07:30:36;100441.66;;;9.12;87.39
40730;BME280;26418;50.070;8.436;2023-02-19T07:33:01;100441.09;;;9.16;87.17
40730;BME280;26418;50.070;8.436;2023-02-19T07:35:26;100443.25;;;9.19;86.94
40730;BME280;26418;50.070;8.436;2023-02-19T07:37:52;100449.97;;;9.21;86.32
40730;BME280;26418;50.070;8.436;2023-02-19T07:40:17;100457.78;;;9.23;85.94
40730;BME280;26418;50.070;8.436;2023-02-19T07:42:42;100457.78;;;9.23;85.48
40730;BME280;26418;50.070;8.436;2023-02-19T07:45:08;100459.91;;;9.31;85.43
40730;BME280;26418;50.070;8.436;2023-02-19T07:47:33;100467.47;;;9.34;85.26
40730;BME280;26418;50.070;8.436;2023-02-19T07:49:58;100470.41;;;9.38;85.06
40730;BME280;26418;50.070;8.436;2023-02-19T07:52:24;100477.66;;;9.42;84.72
40730;BME280;26418;50.070;8.436;2023-02-19T07:54:49;100473.88;;;9.43;84.73
40730;BME280;26418;50.070;8.436;2023-02-19T07:57:14;100484.13;;;9.47;85.25
40730;BME280;26418;50.070;8.436;2023-02-19T07:59:40;100479.78;;;9.46;85.18
40730;BME280;26418;50.070;8.436;2023-02-19T08:02:14;100470.13;;;9.39;84.69
40730;BME280;26418;50.070;8.436;2023-02-19T08:04:59;100471.75;;;9.40;84.85
40730;BME280;26418;50.070;8.436;2023-02-19T08:07:30;100504.34;;;9.54;85.62
40730;BME280;26418;50.070;8.436;2023-02-19T08:09:55;100502.72;;;9.53;86.10
40730;BME280;26418;50.070;8.436;2023-02-19T08:12:40;100512.16;;;9.56;86.58
40730;BME280;26418;50.070;8.436;2023-02-19T08:15:24;100521.38;;;9.50;86.70
40730;BME280;26418;50.070;8.436;2023-02-19T08:17:49;100522.19;;;9.45;86.93
40730;BME280;26418;50.070;8.436;2023-02-19T08:20:15;100532.47;;;9.43;87.22
40730;BME280;26418;50.070;8.436;2023-02-19T08:22:40;100538.94;;;9.47;87.34
40730;BME280;26418;50.070;8.436;2023-02-19T08:25:06;100546.75;;;9.49;86.93
40730;BME280;26418;50.070;8.436;2023-02-19T08:27:31;100555.94;;;9.48;87.26
40730;BME280;26418;50.070;8.436;2023-02-19T08:29:57;100565.09;;;9.52;85.57
40730;BME280;26418;50.070;8.436;2023-02-19T08:32:22;100552.69;;;9.46;85.85
40730;BME280;26418;50.070;8.436;2023-02-19T08:34:47;100571.06;;;9.49;86.23
40730;BME280;26418;50.070;8.436;2023-02-19T08:37:12;100568.06;;;9.50;85.75
40730;BME280;26418;50.070;8.436;2023-02-19T08:39:38;100560.78;;;9.51;85.35
40730;BME280;26418;50.070;8.436;2023-02-19T08:42:03;100574.22;;;9.66;85.78
40730;BME280;26418;50.070;8.436;2023-02-19T08:44:29;100576.88;;;9.77;84.61
40730;BME280;26418;50.070;8.436;2023-02-19T08:46:54;100586.25;;;9.84;84.49
40730;BME280;26418;50.070;8.436;2023-02-19T08:49:19;100579.50;;;9.87;83.88
40730;BME280;26418;50.070;8.436;2023-02-19T08:51:44;100585.41;;;9.94;84.00
40730;BME280;26418;50.070;8.436;2023-02-19T08:54:10;100579.47;;;9.92;83.94
40730;BME280;26418;50.070;8.436;2023-02-19T08:56:35;100571.38;;;9.92;83.56
40730;BME280;26418;50.070;8.436;2023-02-19T08:59:00;100568.13;;;9.90;83.32
40730;BME280;26418;50.070;8.436;2023-02-19T09:01:26;100561.66;;;9.91;82.22
40730;BME280;26418;50.070;8.436;2023-02-19T09:03:52;100568.03;;;10.11;82.46
40730;BME280;26418;50.070;8.436;2023-02-19T09:06:20;100569.59;;;10.17;81.73
40730;BME280;26418;50.070;8.436;2023-02-19T09:08:46;100570.38;;;10.22;80.86
40730;BME280;26418;50.070;8.436;2023-02-19T09:11:11;100575.16;;;10.31;80.03
40730;BME280;26418;50.070;8.436;2023-02-19T09:13:36;100587.03;;;10.35;79.24
40730;BME280;26418;50.070;8.436;2023-02-19T09:16:03;100589.72;;;10.35;79.52
40730;BME280;26418;50.070;8.436;2023-02-19T09:18:29;100602.44;;;10.40;79.14
40730;BME280;26418;50.070;8.436;2023-02-19T09:20:58;100604.00;;;10.46;79.23
40730;BME280;26418;50.070;8.436;2023-02-19T09:23:24;100620.44;;;10.54;78.12
40730;BME280;26418;50.070;8.436;2023-02-19T09:25:56;100617.41;;;10.61;77.42
40730;BME280;26418;50.070;8.436;2023-02-19T09:28:21;100614.13;;;10.64;77.89
40730;BME280;26418;50.070;8.436;2023-02-19T09:30:46;100606.53;;;10.66;77.17
40730;BME280;26418;50.070;8.436;2023-02-19T09:33:12;100611.16;;;10.66;77.45
40730;BME280;26418;50.070;8.436;2023-02-19T09:35:38;100601.94;;;10.67;78.05
40730;BME280;26418;50.070;8.436;2023-02-19T09:38:04;100616.00;;;10.69;77.91
40730;BME280;26418;50.070;8.436;2023-02-19T09:40:29;100614.66;;;10.66;77.96
40730;BME280;26418;50.070;8.436;2023-02-19T09:42:55;100617.69;;;10.60;78.21
40730;BME280;26418;50.070;8.436;2023-02-19T09:45:22;100615.50;;;10.62;78.81
40730;BME280;26418;50.070;8.436;2023-02-19T09:47:53;100612.88;;;10.51;79.83
40730;BME280;26418;50.070;8.436;2023-02-19T09:50:23;100616.47;;;10.42;80.45
40730;BME280;26418;50.070;8.436;2023-02-19T09:52:55;100610.34;;;10.26;81.80
40730;BME280;26418;50.070;8.436;2023-02-19T09:55:38;100611.16;;;10.21;82.50
40730;BME280;26418;50.070;8.436;2023-02-19T09:58:21;100630.09;;;10.21;83.54
40730;BME280;26418;50.070;8.436;2023-02-19T10:00:50;100637.97;;;10.17;85.27
40730;BME280;26418;50.070;8.436;2023-02-19T10:03:27;100629.84;;;10.17;86.99
40730;BME280;26418;50.070;8.436;2023-02-19T10:05:58;100635.72;;;10.30;88.48
40730;BME280;26418;50.070;8.436;2023-02-19T10:08:26;100640.81;;;10.42;85.51
40730;BME280;26418;50.070;8.436;2023-02-19T10:10:52;100639.72;;;10.43;82.73
40730;BME280;26418;50.070;8.436;2023-02-19T10:13:23;100631.88;;;10.41;83.48
40730;BME280;26418;50.070;8.436;2023-02-19T10:15:53;100645.94;;;10.43;83.85
40730;BME280;26418;50.070;8.436;2023-02-19T10:18:26;100655.41;;;10.41;82.80
40730;BME280;26418;50.070;8.436;2023-02-19T10:20:56;100660.53;;;10.42;83.30
40730;BME280;26418;50.070;8.436;2023-02-19T10:23:22;100663.22;;;10.47;82.55
40730;BME280;26418;50.070;8.436;2023-02-19T10:25:55;100666.78;;;10.43;82.60
40730;BME280;26418;50.070;8.436;2023-02-19T10:28:27;100683.81;;;10.33;82.78
40730;BME280;26418;50.070;8.436;2023-02-19T10:30:57;100689.28;;;10.28;83.80
40730;BME280;26418;50.070;8.436;2023-02-19T10:33:24;100695.50;;;10.28;84.36
40730;BME280;26418;50.070;8.436;2023-02-19T10:36:23;100691.44;;;10.31;83.39
40730;BME280;26418;50.070;8.436;2023-02-19T10:38:45;100690.88;;;10.29;82.69
40730;BME280;26418;50.070;8.436;2023-02-19T10:41:17;100695.22;;;10.25;82.42
40730;BME280;26418;50.070;8.436;2023-02-19T10:43:49;100704.69;;;10.22;82.41
40730;BME280;26418;50.070;8.436;2023-02-19T10:46:17;100711.72;;;10.28;82.92
40730;BME280;26418;50.070;8.436;2023-02-19T10:48:53;100699.63;;;10.15;83.14
40730;BME280;26418;50.070;8.436;2023-02-19T10:51:19;100716.25;;;10.33;83.12
40730;BME280;26418;50.070;8.436;2023-02-19T10:53:49;100709.75;;;10.44;83.16
40730;BME280;26418;50.070;8.436;2023-02-19T10:56:22;100702.38;;;10.55;83.79
40730;BME280;26418;50.070;8.436;2023-02-19T10:58:48;100717.34;;;10.82;83.61
40730;BME280;26418;50.070;8.436;2023-02-19T11:01:19;100723.16;;;10.99;83.39
40730;BME280;26418;50.070;8.436;2023-02-19T11:03:47;100728.44;;;11.15;81.77
40730;BME280;26418;50.070;8.436;2023-02-19T11:06:14;100727.59;;;11.20;81.28
40730;BME280;26418;50.070;8.436;2023-02-19T11:08:49;100727.50;;;11.30;81.13
40730;BME280;26418;50.070;8.436;2023-02-19T11:11:24;100723.09;;;11.39;80.12
40730;BME280;26418;50.070;8.436;2023-02-19T11:13:50;100720.28;;;11.50;80.07
40730;BME280;26418;50.070;8.436;2023-02-19T11:16:15;100727.19;;;11.61;77.95
40730;BME280;26418;50.070;8.436;2023-02-19T11:18:41;100712.56;;;11.62;78.33
40730;BME280;26418;50.070;8.436;2023-02-19T11:21:27;100722.97;;;11.79;77.18
40730;BME280;26418;50.070;8.436;2023-02-19T11:23:57;100723.63;;;11.90;76.68
40730;BME280;26418;50.070;8.436;2023-02-19T11:26:25;100710.31;;;11.93;75.47
40730;BME280;26418;50.070;8.436;2023-02-19T11:28:59;100717.13;;;11.91;72.50
40730;BME280;26418;50.070;8.436;2023-02-19T11:31:32;100728.88;;;11.81;72.15
40730;BME280;26418;50.070;8.436;2023-02-19T11:34:24;100732.28;;;11.68;71.63
40730;BME280;26418;50.070;8.436;2023-02-19T11:37:17;100719.13;;;11.56;72.02
40730;BME280;26418;50.070;8.436;2023-02-19T11:39:46;100727.50;;;11.59;72.65
40730;BME280;26418;50.070;8.436;2023-02-19T11:53:24;100762.00;;;11.19;75.07
40730;BME280;26418;50.070;8.436;2023-02-19T11:56:08;100738.84;;;11.03;76.74
40730;BME280;26418;50.070;8.436;2023-02-19T11:59:28;100736.50;;;10.91;77.37
40730;BME280;26418;50.070;8.436;2023-02-19T12:17:52;100732.38;;;11.33;76.10
40730;BME280;26418;50.070;8.436;2023-02-19T12:26:03;100743.81;;;11.25;74.01
40730;BME280;26418;50.070;8.436;2023-02-19T12:43:03;100754.75;;;11.09;74.04
40730;BME280;26418;50.070;8.436;2023-02-19T12:45:40;100734.94;;;11.14;74.19
40730;BME280;26418;50.070;8.436;2023-02-19T12:51:04;100738.34;;;11.30;75.31
40730;BME280;26418;50.070;8.436;2023-02-19T12:53:47;100729.94;;;11.31;74.30
40730;BME280;26418;50.070;8.436;2023-02-19T12:56:40;100727.44;;;11.40;74.34
40730;BME280;26418;50.070;8.436;2023-02-19T12:59:30;100726.13;;;11.32;74.09
40730;BME280;26418;50.070;8.436;2023-02-19T13:02:09;100725.38;;;11.27;75.12
40730;BME280;26418;50.070;8.436;2023-02-19T13:04:46;100725.81;;;11.39;75.30
40730;BME280;26418;50.070;8.436;2023-02-19T13:07:20;100717.22;;;11.32;74.81
40730;BME280;26418;50.070;8.436;2023-02-19T13:10:04;100729.16;;;11.26;75.87
40730;BME280;26418;50.070;8.436;2023-02-19T13:12:38;100727.91;;;11.13;76.06
40730;BME280;26418;50.070;8.436;2023-02-19T13:17:51;100736.88;;;11.08;78.85
40730;BME280;26418;50.070;8.436;2023-02-19T13:20:35;100746.91;;;11.08;79.09
40730;BME280;26418;50.070;8.436;2023-02-19T13:23:22;100743.19;;;11.04;79.42
40730;BME280;26418;50.070;8.436;2023-02-19T13:34:47;100757.78;;;10.63;81.31
40730;BME280;26418;50.070;8.436;2023-02-19T13:37:17;100751.06;;;10.55;81.22
40730;BME280;26418;50.070;8.436;2023-02-19T13:39:48;100752.72;;;10.51;81.99
40730;BME280;26418;50.070;8.436;2023-02-19T13:42:34;100747.31;;;10.46;82.81
40730;BME280;26418;50.070;8.436;2023-02-19T13:45:04;100753.03;;;10.44;83.97
40730;BME280;26418;50.070;8.436;2023-02-19T13:50:23;100734.38;;;10.37;83.96
40730;BME280;26418;50.070;8.436;2023-02-19T13:52:50;100744.41;;;10.27;84.51
40730;BME280;26418;50.070;8.436;2023-02-19T14:00:57;100773.91;;;10.23;84.84
40730;BME280;26418;50.070;8.436;2023-02-19T14:03:43;100771.25;;;10.18;85.76
40730;BME280;26418;50.070;8.436;2023-02-19T14:06:09;100770.44;;;10.12;86.17
40730;BME280;26418;50.070;8.436;2023-02-19T14:08:53;100789.09;;;10.14;86.47
40730;BME280;26418;50.070;8.436;2023-02-19T14:30:45;100777.22;;;10.10;84.00
40730;BME280;26418;50.070;8.436;2023-02-19T14:33:15;100783.13;;;10.12;83.68
40730;BME280;26418;50.070;8.436;2023-02-19T14:35:44;100781.78;;;10.14;83.58
40730;BME280;26418;50.070;8.436;2023-02-19T14:38:19;100787.97;;;10.20;83.64
40730;BME280;26418;50.070;8.436;2023-02-19T14:40:45;100789.59;;;10.26;82.78
40730;BME280;26418;50.070;8.436;2023-02-19T14:43:17;100786.84;;;10.31;81.49
40730;BME280;26418;50.070;8.436;2023-02-19T14:45:47;100777.66;;;10.32;81.39
40730;BME280;26418;50.070;8.436;2023-02-19T14:48:21;100780.09;;;10.29;81.67
40730;BME280;26418;50.070;8.436;2023-02-19T14:50:51;100767.72;;;10.22;81.66
40730;BME280;26418;50.070;8.436;2023-02-19T14:53:18;100780.41;;;10.27;81.10
40730;BME280;26418;50.070;8.436;2023-02-19T14:55:46;100783.09;;;10.22;80.50
40730;BME280;26418;50.070;8.436;2023-02-19T14:58:18;100775.03;;;10.17;80.81
40730;BME280;26418;50.070;8.436;2023-02-19T15:00:45;100782.56;;;10.20;81.25
40730;BME280;26418;50.070;8.436;2023-02-19T15:03:34;100785.56;;;10.23;81.65
40730;BME280;26418;50.070;8.436;2023-02-19T15:06:11;100772.31;;;10.17;81.77
40730;BME280;26418;50.070;8.436;2023-02-19T15:08:45;100776.66;;;10.18;81.41
40730;BME280;26418;50.070;8.436;2023-02-19T15:11:20;100783.94;;;10.17;81.83